createdAt,value
2023-04-02T00:00:18.601Z,1.4
2023-04-02T00:05:19.084Z,2.0
2023-04-02T00:07:59.023Z,2.4
2023-04-02T00:12:59.354Z,2.0
2023-04-02T00:18:00.257Z,2.4
2023-04-02T00:23:00.646Z,1.9
2023-04-02T00:28:00.982Z,1.7
2023-04-02T00:33:01.621Z,2.0
2023-04-02T00:38:02.141Z,1.6
2023-04-02T00:43:02.773Z,1.7
2023-04-02T00:48:03.175Z,2.7
2023-04-02T00:53:03.805Z,1.7
2023-04-02T00:58:04.419Z,2.1
2023-04-02T01:03:05.051Z,1.4
2023-04-02T01:08:05.293Z,1.6
2023-04-02T01:13:05.926Z,1.5
2023-04-02T01:18:06.572Z,1.5
2023-04-02T01:23:07.107Z,2.1
2023-04-02T01:28:07.583Z,1.9
2023-04-02T01:33:08.269Z,1.3
2023-04-02T01:38:08.838Z,2.0
2023-04-02T01:43:09.190Z,1.6
2023-04-02T01:48:09.953Z,1.4
2023-04-02T01:53:10.570Z,1.5
2023-04-02T01:58:10.764Z,1.7
2023-04-02T02:03:11.569Z,1.5
2023-04-02T02:08:11.578Z,1.4
2023-04-02T02:13:12.134Z,1.2
2023-04-02T02:18:12.994Z,1.4
2023-04-02T02:23:13.309Z,1.3
2023-04-02T02:28:13.894Z,1.1
2023-04-02T02:33:14.445Z,1.2
2023-04-02T02:38:14.877Z,1.3
2023-04-02T02:43:15.532Z,1.5
2023-04-02T02:48:16.048Z,1.3
2023-04-02T02:53:16.576Z,1.4
2023-04-02T02:58:16.988Z,1.4
2023-04-02T03:03:17.841Z,1.3
2023-04-02T03:08:17.960Z,1.2
2023-04-02T03:13:18.468Z,1.5
2023-04-02T03:18:19.146Z,1.3
2023-04-02T03:23:20.507Z,1.6
2023-04-02T03:28:20.136Z,1.5
2023-04-02T03:33:20.628Z,1.0
2023-04-02T03:38:21.502Z,1.3
2023-04-02T03:43:21.745Z,1.2
2023-04-02T03:48:22.110Z,1.3
2023-04-02T03:53:22.679Z,1.2
2023-04-02T03:58:23.174Z,1.0
2023-04-02T04:03:23.965Z,1.0
2023-04-02T04:08:24.155Z,1.2
2023-04-02T04:13:24.751Z,0.9
2023-04-02T04:18:25.134Z,1.3
2023-04-02T04:23:25.961Z,0.9
2023-04-02T04:28:26.219Z,1.3
2023-04-02T04:33:27.191Z,1.3
2023-04-02T04:38:27.255Z,1.0
2023-04-02T04:43:27.796Z,1.0
2023-04-02T04:48:28.175Z,1.2
2023-04-02T04:53:28.810Z,1.4
2023-04-02T04:58:29.153Z,1.1
2023-04-02T05:03:30.482Z,1.1
2023-04-02T05:08:30.160Z,1.0
2023-04-02T05:13:30.778Z,0.8
2023-04-02T05:18:31.350Z,1.1
2023-04-02T05:23:31.796Z,1.1
2023-04-02T05:28:32.323Z,1.4
2023-04-02T05:33:32.881Z,1.4
2023-04-02T05:38:33.300Z,1.4
2023-04-02T05:43:33.655Z,1.0
2023-04-02T05:48:34.346Z,1.0
2023-04-02T05:53:34.748Z,1.1
2023-04-02T05:58:36.983Z,1.3
2023-04-02T06:03:36.101Z,1.1
2023-04-02T06:08:36.500Z,1.0
2023-04-02T06:13:36.665Z,0.8
2023-04-02T06:18:37.253Z,0.9
2023-04-02T06:23:37.597Z,1.0
2023-04-02T06:28:38.087Z,1.1
2023-04-02T06:33:38.869Z,1.0
2023-04-02T06:38:39.109Z,1.2
2023-04-02T06:43:39.615Z,1.4
2023-04-02T06:48:43.173Z,1.2
2023-04-02T06:53:40.634Z,1.1
2023-04-02T06:58:40.994Z,1.1
2023-04-02T07:03:41.979Z,1.2
2023-04-02T07:08:42.155Z,1.0
2023-04-02T07:13:42.671Z,1.4
2023-04-02T07:18:43.170Z,1.6
2023-04-02T07:23:43.690Z,1.0
2023-04-02T07:28:44.160Z,1.1
2023-04-02T07:33:45.062Z,1.2
2023-04-02T07:38:45.257Z,1.3
2023-04-02T07:43:45.846Z,1.1
2023-04-02T07:48:46.304Z,1.3
2023-04-02T07:53:46.878Z,0.9
2023-04-02T07:58:47.509Z,1.0
2023-04-02T08:03:48.373Z,0.9
2023-04-02T08:08:48.555Z,1.1
2023-04-02T08:13:48.974Z,0.8
2023-04-02T08:18:49.926Z,1.2
2023-04-02T08:23:50.105Z,1.9
2023-04-02T08:28:50.873Z,1.8
2023-04-02T08:33:51.025Z,2.0
2023-04-02T08:38:51.763Z,2.0
2023-04-02T08:43:52.280Z,1.7
2023-04-02T08:48:52.822Z,1.7
2023-04-02T08:53:53.476Z,1.8
2023-04-02T08:58:53.926Z,1.7
2023-04-02T09:03:55.220Z,1.5
2023-04-02T09:08:55.068Z,1.6
2023-04-02T09:13:55.696Z,1.5
2023-04-02T09:18:56.136Z,1.8
2023-04-02T09:23:56.859Z,1.5
2023-04-02T09:28:57.189Z,1.6
2023-04-02T09:33:58.164Z,1.4
2023-04-02T09:38:58.508Z,1.8
2023-04-02T09:43:58.878Z,2.0
2023-04-02T09:48:59.786Z,1.9
2023-04-02T09:54:00.127Z,1.5
2023-04-02T09:59:00.739Z,1.4
2023-04-02T10:04:01.642Z,1.4
2023-04-02T10:09:01.855Z,1.4
2023-04-02T10:14:02.466Z,2.0
2023-04-02T10:19:03.093Z,1.7
2023-04-02T10:24:03.515Z,1.6
2023-04-02T10:29:06.759Z,1.7
2023-04-02T10:34:04.852Z,1.8
2023-04-02T10:39:05.435Z,1.7
2023-04-02T10:44:16.680Z,1.8
2023-04-02T10:49:06.615Z,2.0
2023-04-02T10:54:07.025Z,1.5
2023-04-02T10:59:07.534Z,1.7
2023-04-02T11:04:08.378Z,1.4
2023-04-02T11:09:08.684Z,1.4
2023-04-02T11:14:09.307Z,1.4
2023-04-02T11:19:09.908Z,1.3
2023-04-02T11:24:10.337Z,1.2
2023-04-02T11:29:10.871Z,1.4
2023-04-02T11:34:11.367Z,1.7
2023-04-02T11:39:17.557Z,1.5
2023-04-02T11:44:12.421Z,1.3
2023-04-02T11:49:13.271Z,1.8
2023-04-02T11:54:13.610Z,1.6
2023-04-02T11:59:14.100Z,1.2
2023-04-02T12:04:15.032Z,2.1
2023-04-02T12:09:15.290Z,1.2
2023-04-02T12:14:15.870Z,1.4
2023-04-02T12:19:16.323Z,1.2
2023-04-02T12:24:16.839Z,1.9
2023-04-02T12:29:17.347Z,1.6
2023-04-02T12:34:18.045Z,0.7
2023-04-02T12:39:18.453Z,1.1
2023-04-02T12:44:19.066Z,1.1
2023-04-02T12:49:19.771Z,0.9
2023-04-02T12:54:20.151Z,1.0
2023-04-02T12:59:20.691Z,0.8
2023-04-02T13:04:21.781Z,1.4
2023-04-02T13:09:21.854Z,1.1
2023-04-02T13:14:22.516Z,1.0
2023-04-02T13:19:23.036Z,1.1
2023-04-02T13:24:23.662Z,1.1
2023-04-02T13:29:24.254Z,1.0
2023-04-02T13:34:24.807Z,0.9
2023-04-02T13:39:25.428Z,0.9
2023-04-02T13:44:25.870Z,0.9
2023-04-02T13:49:26.642Z,0.9
2023-04-02T13:54:26.987Z,1.1
2023-04-02T13:59:27.666Z,0.8
2023-04-02T14:04:28.527Z,0.8
2023-04-02T14:09:28.605Z,0.9
2023-04-02T14:14:29.145Z,0.7
2023-04-02T14:19:29.848Z,1.1
2023-04-02T14:24:30.429Z,0.7
2023-04-02T14:29:31.011Z,0.6
2023-04-02T14:34:31.628Z,1.2
2023-04-02T14:39:32.099Z,1.0
2023-04-02T14:44:32.648Z,0.7
2023-04-02T14:49:33.222Z,0.7
2023-04-02T14:54:33.872Z,0.6
2023-04-02T14:59:34.511Z,1.2
2023-04-02T15:04:35.358Z,0.8
2023-04-02T15:09:35.481Z,0.5
2023-04-02T15:14:36.254Z,0.8
2023-04-02T15:19:36.960Z,0.5
2023-04-02T15:24:37.600Z,0.7
2023-04-02T15:29:38.131Z,0.6
2023-04-02T15:34:38.800Z,0.5
2023-04-02T15:39:39.140Z,0.6
2023-04-02T15:44:39.816Z,0.7
2023-04-02T15:49:40.549Z,0.3
2023-04-02T15:54:40.985Z,0.6
2023-04-02T15:59:41.334Z,0.7
2023-04-02T16:04:42.630Z,0.6
2023-04-02T16:09:42.690Z,0.6
2023-04-02T16:14:43.243Z,0.7
2023-04-02T16:19:43.896Z,0.7
2023-04-02T16:24:44.508Z,0.7
2023-04-02T16:29:53.752Z,0.9
2023-04-02T16:34:45.750Z,0.9
2023-04-02T16:39:46.227Z,0.7
2023-04-02T16:44:46.859Z,0.5
2023-04-02T16:49:47.439Z,0.8
2023-04-02T16:54:47.973Z,0.7
2023-04-02T16:59:48.713Z,0.8
2023-04-02T17:04:49.580Z,0.8
2023-04-02T17:09:49.774Z,0.7
2023-04-02T17:14:50.392Z,1.0
2023-04-02T17:19:51.644Z,0.8
2023-04-02T17:24:51.857Z,0.6
2023-04-02T17:29:52.331Z,0.7
2023-04-02T17:34:52.924Z,0.5
2023-04-02T17:39:53.489Z,0.6
2023-04-02T17:44:54.142Z,0.7
2023-04-02T17:49:54.667Z,0.8
2023-04-02T17:54:55.322Z,0.7
2023-04-02T17:59:55.897Z,0.7
2023-04-02T18:04:57.044Z,0.7
2023-04-02T18:09:57.118Z,0.7
2023-04-02T18:14:57.594Z,0.8
2023-04-02T18:19:58.359Z,0.6
2023-04-02T18:24:58.724Z,0.6
2023-04-02T18:29:59.290Z,0.8
2023-04-02T18:35:00.322Z,0.7
2023-04-02T18:40:00.599Z,0.6
2023-04-02T18:45:01.262Z,0.8
2023-04-02T18:50:01.935Z,1.0
2023-04-02T18:55:02.366Z,0.7
2023-04-02T19:00:02.999Z,0.7
2023-04-02T19:05:03.785Z,0.7
2023-04-02T19:10:04.298Z,0.6
2023-04-02T19:15:04.786Z,0.8
2023-04-02T19:20:05.577Z,0.9
2023-04-02T19:25:05.856Z,0.6
2023-04-02T19:30:06.529Z,0.5
2023-04-02T19:35:07.370Z,0.9
2023-04-02T19:40:07.616Z,1.0
2023-04-02T19:45:08.470Z,0.5
2023-04-02T19:50:09.141Z,0.5
2023-04-02T19:55:09.636Z,1.0
2023-04-02T20:00:09.934Z,0.7
2023-04-02T20:05:11.456Z,0.6
2023-04-02T20:10:11.297Z,0.6
2023-04-02T20:15:11.834Z,0.6
2023-04-02T20:20:12.630Z,0.9
2023-04-02T20:25:12.903Z,0.7
2023-04-02T20:30:13.577Z,0.8
2023-04-02T20:35:14.341Z,0.9
2023-04-02T20:40:14.499Z,0.7
2023-04-02T20:45:15.258Z,0.7
2023-04-02T20:50:15.717Z,0.7
2023-04-02T20:55:16.160Z,0.9
2023-04-02T21:00:16.905Z,0.7
2023-04-02T21:05:17.744Z,1.1
2023-04-02T21:10:17.871Z,0.9
2023-04-02T21:15:18.616Z,0.8
2023-04-02T21:20:19.150Z,0.6
2023-04-02T21:25:19.825Z,0.5
2023-04-02T21:30:20.235Z,0.8
2023-04-02T21:35:20.697Z,0.6
2023-04-02T21:40:21.288Z,0.7
2023-04-02T21:45:21.858Z,0.7
2023-04-02T21:50:22.627Z,0.6
2023-04-02T21:55:23.113Z,0.6
2023-04-02T22:00:23.658Z,0.7
2023-04-02T22:05:24.744Z,0.8
2023-04-02T22:10:24.668Z,0.5
2023-04-02T22:15:25.222Z,0.7
2023-04-02T22:20:25.880Z,0.8
2023-04-02T22:25:26.265Z,0.9
2023-04-02T22:30:26.866Z,0.8
2023-04-02T22:35:27.455Z,0.8
2023-04-02T22:40:27.866Z,0.8
2023-04-02T22:45:28.547Z,0.9
2023-04-02T22:50:29.099Z,0.8
2023-04-02T22:55:29.408Z,0.9
2023-04-02T23:00:30.043Z,1.0
2023-04-02T23:05:30.941Z,1.0
2023-04-02T23:10:31.004Z,1.0
2023-04-02T23:15:31.635Z,1.1
2023-04-02T23:20:32.221Z,0.9
2023-04-02T23:25:32.660Z,1.2
2023-04-02T23:30:33.252Z,1.3
2023-04-02T23:35:33.865Z,0.8
2023-04-02T23:40:34.674Z,1.2
2023-04-02T23:45:34.981Z,1.0
2023-04-02T23:50:35.865Z,1.2
2023-04-02T23:55:35.991Z,0.9
